Time;durP1;ratioP1;P1;durP2;ratioP2;P2;SDS_P1;SDS_P2;PMS_P1;PMS_P2;Temp;Humidity;BMP_temperature;BMP_pressure;BME280_temperature;BME280_humidity;BME280_pressure;Samples;Min_cycle;Max_cycle;Signal;HPM_P1;HPM_P2
2022/09/03 00:01:15;;;;;;;33.60;22.10;;;;;;;19.17;100.00;98758.06;4989827;28;20187;-88
2022/09/03 00:03:46;;;;;;;33.10;23.30;;;;;;;19.62;100.00;98844.47;4970924;28;20191;-88
2022/09/03 00:06:22;;;;;;;36.30;24.37;;;;;;;19.03;100.00;98764.06;4973660;28;20230;-87
2022/09/03 00:09:02;;;;;;;34.27;23.80;;;;;;;18.66;100.00;98687.13;4976325;28;20164;-88
2022/09/03 00:11:41;;;;;;;36.63;24.03;;;;;;;19.15;100.00;98794.84;4976750;28;20156;-88
2022/09/03 00:14:34;;;;;;;35.13;24.27;;;;;;;19.30;100.00;98834.22;4978573;28;20641;-88
2022/09/03 00:17:15;;;;;;;37.63;25.27;;;;;;;18.96;100.00;98755.50;4994337;28;20195;-89
2022/09/03 00:20:15;;;;;;;36.90;24.80;;;;;;;20.35;100.00;98989.16;4995624;28;20246;-88
2022/09/03 00:22:53;;;;;;;38.07;25.20;;;;;;;19.15;100.00;98835.91;4954660;29;20626;-88
2022/09/03 00:25:28;;;;;;;38.30;24.87;;;;;;;19.49;100.00;98883.00;4938957;29;20249;-87
2022/09/03 00:27:57;;;;;;;36.27;25.83;;;;;;;19.82;100.00;98944.63;4938629;29;20658;-87
2022/09/03 00:30:23;;;;;;;37.97;25.33;;;;;;;20.07;100.00;98984.88;4938813;29;20223;-87
2022/09/03 00:32:58;;;;;;;35.23;24.00;;;;;;;19.17;100.00;98854.75;4954232;29;20228;-88
2022/09/03 00:35:31;;;;;;;39.37;25.40;;;;;;;19.80;100.00;98979.75;4955003;29;20240;-87
2022/09/03 00:37:59;;;;;;;40.33;25.50;;;;;;;18.84;100.00;98809.38;4945297;29;20204;-88
2022/09/03 00:40:30;;;;;;;36.43;24.83;;;;;;;19.64;100.00;98972.91;4920794;29;20197;-88
2022/09/03 00:43:18;;;;;;;39.80;24.70;;;;;;;19.01;100.00;98888.94;4935460;29;20183;-87
2022/09/03 00:46:04;;;;;;;39.60;24.93;;;;;;;18.31;100.00;98773.34;4936671;29;20197;-88
2022/09/03 00:48:36;;;;;;;38.80;25.40;;;;;;;19.27;100.00;98971.94;4952411;29;20177;-87
2022/09/03 00:51:24;;;;;;;41.33;25.60;;;;;;;19.20;100.00;98965.94;4920701;29;20189;-86
2022/09/03 00:53:53;;;;;;;38.73;25.73;;;;;;;19.11;100.00;98955.66;4951651;29;20189;-87
2022/09/03 00:56:43;;;;;;;41.70;25.87;;;;;;;19.12;100.00;98959.06;4936161;29;20205;-86
2022/09/03 00:59:33;;;;;;;40.27;26.03;;;;;;;19.30;100.00;98959.13;4957801;28;20191;-87
2022/09/03 01:02:16;;;;;;;37.20;25.93;;;;;;;19.26;100.00;98972.78;4976568;28;20210;-85
2022/09/03 01:05:02;;;;;;;36.87;24.83;;;;;;;19.20;100.00;98968.50;4978801;28;20222;-87
2022/09/03 01:07:51;;;;;;;40.60;26.53;;;;;;;19.13;100.00;98966.78;4954255;29;20200;-87
2022/09/03 01:10:55;;;;;;;40.47;25.17;;;;;;;19.08;100.00;98972.75;4954641;29;20236;-87
2022/09/03 01:13:28;;;;;;;37.97;24.67;;;;;;;19.05;100.00;98970.16;4955020;29;20188;-87
2022/09/03 01:16:06;;;;;;;37.17;24.03;;;;;;;19.13;100.00;98977.03;4938420;29;20177;-86
2022/09/03 01:18:50;;;;;;;36.63;23.70;;;;;;;17.82;100.00;98739.03;4955538;28;20215;-86
2022/09/03 01:21:57;;;;;;;35.03;23.63;;;;;;;18.76;100.00;98904.22;4955400;29;20234;-86
2022/09/03 01:24:42;;;;;;;35.53;23.53;;;;;;;18.54;100.00;98871.69;4936595;29;20200;-86
2022/09/03 01:27:45;;;;;;;37.57;23.27;;;;;;;19.20;100.00;98971.06;4935162;29;20176;-86
2022/09/03 01:30:17;;;;;;;37.70;23.10;;;;;;;19.21;100.00;98972.78;4882779;29;20226;-87
2022/09/03 01:33:02;;;;;;;36.97;22.50;;;;;;;18.47;100.00;98848.56;4865067;29;20245;-87
2022/09/03 01:35:47;;;;;;;35.73;22.80;;;;;;;19.14;100.00;98947.97;4878527;29;20172;-87
2022/09/03 01:38:25;;;;;;;34.47;21.93;;;;;;;19.21;100.00;98982.19;4862566;29;20300;-87
2022/09/03 01:44:08;;;;;;;34.03;22.03;;;;;;;19.11;100.00;98973.63;4896157;29;20253;-88
2022/09/03 01:46:39;;;;;;;30.70;20.87;;;;;;;19.07;100.00;98955.63;4934169;29;20208;-87
2022/09/03 01:49:13;;;;;;;28.93;19.80;;;;;;;18.25;100.00;98827.13;4939922;29;20180;-87
2022/09/03 01:51:40;;;;;;;32.90;21.10;;;;;;;17.75;100.00;98732.16;4954915;29;20196;-89
2022/09/03 01:54:23;;;;;;;29.33;19.33;;;;;;;17.50;100.00;98685.06;4954528;29;20647;-87
2022/09/03 01:57:26;;;;;;;29.73;19.90;;;;;;;19.29;100.00;98973.66;4937601;29;20288;-87
2022/09/03 02:00:00;;;;;;;26.67;18.20;;;;;;;19.16;100.00;98971.91;4953198;29;20193;-87
2022/09/03 02:02:27;;;;;;;27.60;18.87;;;;;;;19.30;100.00;98970.25;4953396;29;20238;-87
2022/09/03 02:05:07;;;;;;;28.03;18.63;;;;;;;19.28;100.00;98971.94;4956390;28;20188;-87
2022/09/03 02:07:37;;;;;;;28.30;19.40;;;;;;;19.37;100.00;98974.53;4968911;28;20171;-87
2022/09/03 02:10:10;;;;;;;26.20;18.20;;;;;;;19.32;100.00;98965.97;4955482;28;20251;-87
2022/09/03 02:12:38;;;;;;;29.57;18.47;;;;;;;18.76;100.00;98905.97;4955646;29;20167;-87
2022/09/03 02:15:11;;;;;;;25.43;17.90;;;;;;;18.97;100.00;98931.66;4965218;28;20196;-87
2022/09/03 02:17:39;;;;;;;27.50;18.30;;;;;;;17.63;100.00;98703.94;4960413;28;20176;-87
2022/09/03 02:20:10;;;;;;;27.80;18.80;;;;;;;18.36;100.00;98827.16;4986782;28;20703;-87
2022/09/03 02:22:38;;;;;;;25.87;18.30;;;;;;;18.16;100.00;98799.75;4953511;29;20203;-87
2022/09/03 02:25:04;;;;;;;29.37;19.70;;;;;;;19.23;100.00;98989.03;4954473;29;20180;-87
2022/09/03 02:27:30;;;;;;;28.33;19.27;;;;;;;18.77;100.00;98889.72;4954500;29;20255;-87
2022/09/03 02:29:57;;;;;;;26.97;18.70;;;;;;;17.73;100.00;98687.75;4954959;28;20177;-87
2022/09/03 02:32:23;;;;;;;28.57;19.13;;;;;;;18.82;100.00;98893.13;4960720;28;20652;-87
2022/09/03 02:34:48;;;;;;;28.40;17.77;;;;;;;18.90;100.00;98913.72;4993143;28;20214;-86
2022/09/03 02:37:16;;;;;;;24.93;18.07;;;;;;;19.34;100.00;99000.19;4993236;28;20190;-87
2022/09/03 02:39:42;;;;;;;26.03;18.07;;;;;;;19.39;100.00;99001.06;4993533;28;20155;-88
2022/09/03 02:42:11;;;;;;;26.90;17.33;;;;;;;18.84;100.00;98946.16;4999924;28;20197;-88
2022/09/03 02:44:41;;;;;;;26.47;17.77;;;;;;;19.09;100.00;99005.28;4997763;28;20191;-87
2022/09/03 02:47:07;;;;;;;27.67;18.13;;;;;;;18.15;100.00;98835.63;4994956;28;20183;-87
2022/09/03 02:49:33;;;;;;;23.57;15.17;;;;;;;18.76;100.00;98962.41;4997604;28;20178;-88
2022/09/03 02:52:05;;;;;;;28.63;17.87;;;;;;;17.97;100.00;98826.16;4994048;28;20178;-88
2022/09/03 02:54:34;;;;;;;27.03;17.13;;;;;;;17.27;100.00;98696.91;4993960;28;20608;-88
2022/09/03 02:57:00;;;;;;;24.97;17.40;;;;;;;17.84;100.00;98772.31;4993325;28;20168;-87
2022/09/03 02:59:27;;;;;;;25.40;17.27;;;;;;;17.48;100.00;98729.41;4992656;28;20167;-87
2022/09/03 03:01:53;;;;;;;24.40;16.00;;;;;;;18.73;100.00;98923.91;4993591;28;20202;-87
2022/09/03 03:04:19;;;;;;;24.87;16.37;;;;;;;18.00;100.00;98815.91;4993297;28;20168;-86
2022/09/03 03:06:44;;;;;;;27.50;16.23;;;;;;;18.51;100.00;98886.22;5008671;28;20190;-86
2022/09/03 03:09:10;;;;;;;21.47;14.90;;;;;;;18.09;100.00;98805.72;4993698;28;20175;-86
2022/09/03 03:11:35;;;;;;;23.80;16.10;;;;;;;19.16;100.00;98979.63;4993054;28;20186;-86
2022/09/03 03:14:01;;;;;;;23.87;15.57;;;;;;;16.65;100.00;98611.25;5012020;28;20245;-86
2022/09/03 03:16:28;;;;;;;23.40;15.10;;;;;;;15.85;100.00;98442.94;5011979;28;20637;-86
2022/09/03 03:18:55;;;;;;;23.30;16.33;;;;;;;17.83;100.00;98761.19;5011313;28;20190;-87
2022/09/03 03:21:21;;;;;;;24.47;16.83;;;;;;;16.73;100.00;98584.06;5012229;28;20193;-87
2022/09/03 03:23:46;;;;;;;24.20;15.80;;;;;;;18.52;100.00;98862.28;4995357;28;20721;-87
2022/09/03 03:26:17;;;;;;;29.03;16.70;;;;;;;18.78;100.00;98933.34;5012487;28;20174;-86
2022/09/03 03:28:43;;;;;;;23.77;15.13;;;;;;;19.08;100.00;98986.44;4994752;28;20252;-86
2022/09/03 03:31:10;;;;;;;23.87;15.90;;;;;;;17.72;100.00;98751.78;5000727;28;20179;-87
2022/09/03 03:33:35;;;;;;;22.30;15.60;;;;;;;19.15;100.00;98995.84;4992056;28;20226;-86
2022/09/03 03:36:10;;;;;;;25.40;15.80;;;;;;;18.13;100.00;98830.50;4992407;28;20167;-86
2022/09/03 03:38:36;;;;;;;25.03;16.60;;;;;;;18.48;100.00;98905.00;4992401;28;20631;-87
2022/09/03 03:41:20;;;;;;;24.23;16.13;;;;;;;19.20;100.00;98994.16;4993067;28;20226;-86
2022/09/03 03:43:47;;;;;;;23.77;16.23;;;;;;;18.73;100.00;98927.31;4979382;28;20174;-86
2022/09/03 03:46:13;;;;;;;24.77;15.60;;;;;;;19.21;100.00;98995.88;4996492;28;20169;-86
2022/09/03 03:48:40;;;;;;;21.97;15.70;;;;;;;18.39;100.00;98897.25;4996368;28;20213;-86
2022/09/03 03:51:07;;;;;;;24.13;15.80;;;;;;;18.62;100.00;98930.69;4996097;28;20675;-86
2022/09/03 03:53:35;;;;;;;22.57;15.93;;;;;;;17.81;100.00;98787.66;4997548;28;20201;-86
2022/09/03 03:56:03;;;;;;;23.93;15.30;;;;;;;18.14;100.00;98875.75;4996448;28;20173;-88
2022/09/03 03:58:30;;;;;;;23.47;14.13;;;;;;;18.33;100.00;98932.22;4996539;28;20666;-87
2022/09/03 04:01:06;;;;;;;25.50;15.97;;;;;;;17.82;100.00;98794.50;4996098;28;20199;-86
2022/09/03 04:03:33;;;;;;;27.87;16.03;;;;;;;18.08;100.00;98860.34;4978624;28;20171;-86
2022/09/03 04:05:59;;;;;;;25.17;14.33;;;;;;;16.27;100.00;98595.59;4978578;28;20171;-86
2022/09/03 04:08:25;;;;;;;23.60;15.00;;;;;;;18.02;100.00;98882.53;4995688;28;20168;-87
2022/09/03 04:10:51;;;;;;;21.13;14.80;;;;;;;18.18;100.00;98885.16;4995438;28;20176;-86
2022/09/03 04:13:17;;;;;;;24.43;14.50;;;;;;;16.55;100.00;98629.94;4996243;28;20160;-86
2022/09/03 04:15:43;;;;;;;21.97;14.03;;;;;;;18.29;100.00;98896.31;4999983;28;20181;-88
2022/09/03 04:18:08;;;;;;;23.73;14.97;;;;;;;17.57;100.00;98791.81;5014524;28;20178;-87
2022/09/03 04:20:37;;;;;;;23.17;14.10;;;;;;;18.88;100.00;99023.97;5015200;28;20167;-88
2022/09/03 04:23:04;;;;;;;23.47;13.47;;;;;;;18.88;100.00;99020.56;5015032;28;20206;-86
2022/09/03 04:25:30;;;;;;;20.87;13.60;;;;;;;18.73;100.00;99016.22;4997965;28;20170;-86
2022/09/03 04:27:56;;;;;;;20.53;13.30;;;;;;;16.35;100.00;98637.41;5019557;28;20186;-87
2022/09/03 04:30:22;;;;;;;21.13;13.57;;;;;;;16.48;100.00;98646.91;5000554;28;20465;-87
2022/09/03 04:32:53;;;;;;;19.93;12.83;;;;;;;18.18;100.00;98951.78;5015683;28;20230;-87
2022/09/03 04:35:24;;;;;;;21.97;12.93;;;;;;;17.65;100.00;98843.03;5014363;28;20273;-87
2022/09/03 04:37:50;;;;;;;18.40;12.80;;;;;;;18.60;100.00;99024.69;4996612;28;20666;-86
2022/09/03 04:40:17;;;;;;;19.43;12.57;;;;;;;17.82;100.00;98881.56;5015397;28;20198;-87
2022/09/03 04:42:42;;;;;;;17.83;12.90;;;;;;;17.36;100.00;98799.28;5015472;28;20203;-86
2022/09/03 04:45:09;;;;;;;19.93;12.63;;;;;;;16.43;100.00;98674.06;5015464;28;20167;-85
2022/09/03 04:47:37;;;;;;;18.83;12.43;;;;;;;16.53;100.00;98681.88;5015184;28;20198;-86
2022/09/03 04:50:05;;;;;;;17.00;12.17;;;;;;;18.10;100.00;98945.75;4999532;28;20225;-86
2022/09/03 04:52:30;;;;;;;18.27;12.43;;;;;;;16.50;100.00;98652.88;5030589;28;20163;-87
2022/09/03 04:54:57;;;;;;;18.50;11.13;;;;;;;17.34;100.00;98826.56;5017695;28;20177;-87
2022/09/03 04:57:22;;;;;;;16.63;11.70;;;;;;;14.90;100.00;98406.34;5024664;28;20174;-88
2022/09/03 04:59:48;;;;;;;16.87;11.57;;;;;;;18.88;100.00;99057.31;5024168;28;20235;-87
2022/09/03 05:02:14;;;;;;;19.53;11.20;;;;;;;17.35;100.00;98802.72;5022456;28;20209;-88
2022/09/03 05:04:40;;;;;;;17.67;11.60;;;;;;;17.46;100.00;98800.22;5022428;28;20167;-88
2022/09/03 05:07:06;;;;;;;16.83;11.27;;;;;;;17.16;100.00;98736.06;5016115;28;20174;-88
2022/09/03 05:09:31;;;;;;;17.73;11.87;;;;;;;16.48;100.00;98609.41;5004740;28;20182;-88
2022/09/03 05:11:57;;;;;;;17.57;11.00;;;;;;;17.96;100.00;98824.44;5019158;28;20228;-87
2022/09/03 05:14:22;;;;;;;16.83;10.40;;;;;;;15.78;100.00;98472.69;5025670;28;20541;-87
2022/09/03 05:16:48;;;;;;;15.93;9.97;;;;;;;19.29;100.00;99060.94;5034829;28;20169;-87
2022/09/03 05:19:14;;;;;;;15.20;9.70;;;;;;;17.73;100.00;98815.78;5037681;28;20254;-86
2022/09/03 05:21:39;;;;;;;21.17;10.50;;;;;;;18.21;100.00;98866.41;5017675;28;20761;-86
2022/09/03 05:24:05;;;;;;;15.33;10.00;;;;;;;18.10;100.00;98843.28;5015389;28;20232;-87
2022/09/03 05:26:35;;;;;;;14.93;9.80;;;;;;;18.54;100.00;98917.00;4982789;28;20259;-87
2022/09/03 05:29:06;;;;;;;14.53;9.20;;;;;;;19.77;100.00;99083.34;4994695;28;20298;-87
2022/09/03 05:31:33;;;;;;;15.43;8.77;;;;;;;19.76;100.00;99084.19;4995647;28;20195;-86
2022/09/03 05:34:02;;;;;;;13.90;8.20;;;;;;;17.63;100.00;98701.38;4996108;28;20711;-88
2022/09/03 05:36:30;;;;;;;14.50;8.97;;;;;;;20.01;100.00;99105.66;4995565;28;20195;-86
2022/09/03 05:38:58;;;;;;;11.80;8.20;;;;;;;17.60;100.00;98673.22;4995800;28;20171;-86
2022/09/03 05:41:24;;;;;;;11.83;7.33;;;;;;;18.53;100.00;98836.66;4994964;28;20270;-86
2022/09/03 05:43:54;;;;;;;11.60;8.17;;;;;;;20.07;100.00;99084.25;4995063;28;20607;-86
2022/09/03 05:46:28;;;;;;;11.70;8.23;;;;;;;19.85;100.00;99042.25;4996010;28;20175;-84
2022/09/03 05:48:54;;;;;;;14.17;8.80;;;;;;;17.64;100.00;98672.34;4995403;28;20347;-85
2022/09/03 05:51:20;;;;;;;13.47;9.57;;;;;;;17.95;100.00;98683.56;4978139;28;20159;-87
2022/09/03 05:53:47;;;;;;;15.50;8.90;;;;;;;19.95;100.00;98982.28;4994388;28;20163;-87
2022/09/03 05:56:18;;;;;;;14.23;8.13;;;;;;;18.40;100.00;98741.75;4994238;28;20526;-86
2022/09/03 05:58:49;;;;;;;12.87;9.00;;;;;;;19.36;100.00;98882.97;4996388;28;20167;-86
2022/09/03 06:01:17;;;;;;;13.13;8.60;;;;;;;20.31;100.00;99051.72;4995000;28;20233;-86
2022/09/03 06:03:44;;;;;;;13.17;8.40;;;;;;;19.92;100.00;98972.00;4977293;28;20167;-85
2022/09/03 06:06:10;;;;;;;13.83;8.37;;;;;;;20.79;100.00;99099.66;4994348;28;20168;-84
2022/09/03 06:08:39;;;;;;;12.60;8.40;;;;;;;20.72;100.00;99100.53;4994417;28;20186;-86
2022/09/03 06:11:05;;;;;;;11.77;8.57;;;;;;;21.09;100.00;99109.06;4976594;28;20167;-85
2022/09/03 06:13:32;;;;;;;14.00;8.17;;;;;;;21.08;100.00;99113.34;4994083;28;20585;-86
2022/09/03 06:16:00;;;;;;;13.47;8.23;;;;;;;21.04;100.00;99105.63;4994824;28;20171;-86
2022/09/03 06:18:27;;;;;;;13.93;8.77;;;;;;;21.25;100.00;99110.72;4976718;28;20591;-86
2022/09/03 06:20:56;;;;;;;13.37;8.67;;;;;;;21.41;100.00;99107.22;5009853;28;20178;-85
2022/09/03 06:23:23;;;;;;;12.33;8.33;;;;;;;20.16;100.00;98884.59;5013049;28;20170;-84
2022/09/03 06:26:05;;;;;;;13.87;8.73;;;;;;;21.00;100.00;99011.22;5014590;28;20169;-86
2022/09/03 06:28:36;;;;;;;13.67;9.53;;;;;;;20.33;100.00;98915.44;4995723;28;20175;-84
2022/09/03 06:31:04;;;;;;;14.73;9.60;;;;;;;21.86;100.00;99115.56;5009213;28;20170;-87
2022/09/03 06:33:32;;;;;;;17.90;9.47;;;;;;;20.72;100.00;98935.00;4993000;28;20708;-87
2022/09/03 06:36:02;;;;;;;15.87;9.77;;;;;;;19.98;100.00;98774.16;4992888;28;20221;-85
2022/09/03 06:38:34;;;;;;;14.23;10.07;;;;;;;22.13;100.00;99120.56;4993825;28;20193;-86
2022/09/03 06:41:02;;;;;;;15.50;9.97;;;;;;;19.16;100.00;98633.19;4997463;28;20205;-86
2022/09/03 06:43:29;;;;;;;14.60;10.40;;;;;;;21.29;100.00;98970.75;5012332;28;20166;-85
2022/09/03 06:45:59;;;;;;;13.70;8.90;;;;;;;20.42;100.00;98800.56;4995085;28;20185;-85
2022/09/03 06:48:26;;;;;;;14.60;9.50;;;;;;;21.60;100.00;99036.69;4995337;28;20171;-86
2022/09/03 06:50:57;;;;;;;13.50;9.10;;;;;;;22.42;100.00;99138.38;5013245;28;20189;-87
2022/09/03 06:53:25;;;;;;;11.37;8.23;;;;;;;19.53;100.00;98687.03;5011980;28;20262;-87
2022/09/03 06:56:00;;;;;;;13.20;8.43;;;;;;;22.07;100.00;99082.78;4976321;28;20173;-87
2022/09/03 06:58:37;;;;;;;14.07;9.07;;;;;;;22.45;100.00;99122.88;4993801;28;20171;-86
2022/09/03 07:01:06;;;;;;;13.87;9.20;;;;;;;22.92;100.00;99125.94;4997108;28;20221;-87
2022/09/03 07:03:33;;;;;;;14.00;9.70;;;;;;;23.09;100.00;99123.16;5000175;28;20152;-87
2022/09/03 07:06:00;;;;;;;13.63;9.30;;;;;;;22.39;100.00;98978.50;4984570;28;20186;-85
2022/09/03 07:08:26;;;;;;;10.90;8.27;;;;;;;22.17;100.00;98994.16;5000275;28;20639;-85
2022/09/03 07:10:51;;;;;;;11.93;7.97;;;;;;;22.97;100.00;99107.78;4995951;28;20306;-85
2022/09/03 07:13:17;;;;;;;10.97;8.07;;;;;;;22.39;100.00;98958.69;4993880;28;20164;-87
2022/09/03 07:15:43;;;;;;;10.47;7.50;;;;;;;23.17;100.00;99080.88;4992500;28;20167;-87
2022/09/03 07:18:08;;;;;;;10.53;8.00;;;;;;;22.59;100.00;98946.44;4991815;28;20190;-87
2022/09/03 07:20:34;;;;;;;11.13;8.00;;;;;;;23.44;100.00;99004.78;4993683;28;20175;-86
2022/09/03 07:23:00;;;;;;;15.10;8.77;;;;;;;21.94;100.00;98835.44;4994471;28;20273;-86
2022/09/03 07:25:26;;;;;;;11.23;7.80;;;;;;;22.18;100.00;98894.47;4995003;28;20175;-87
2022/09/03 07:27:51;;;;;;;10.77;8.10;;;;;;;22.69;100.00;98949.81;4993388;28;20160;-85
2022/09/03 07:30:19;;;;;;;14.53;9.37;;;;;;;21.28;100.00;98706.44;4975862;28;20175;-87
2022/09/03 07:32:45;;;;;;;9.50;6.90;;;;;;;23.84;100.00;99140.34;4993040;28;20305;-86
2022/09/03 07:35:12;;;;;;;11.50;7.87;;;;;;;23.82;100.00;99152.44;5010283;28;20716;-86
2022/09/03 07:37:40;;;;;;;10.80;7.70;;;;;;;22.06;100.00;98781.13;5012329;28;20167;-86
2022/09/03 07:40:06;;;;;;;12.30;7.23;;;;;;;22.75;100.00;98867.97;4997538;28;20277;-86
2022/09/03 07:42:34;;;;;;;8.50;5.50;;;;;;;23.67;100.00;98969.13;4992796;28;20191;-88
2022/09/03 07:44:59;;;;;;;5.70;4.93;;;;;;;22.17;100.00;98756.06;4993233;28;20583;-89
2022/09/03 07:47:25;;;;;;;7.47;4.60;;;;;;;24.15;100.00;99070.06;5008070;28;20226;-89
2022/09/03 07:49:50;;;;;;;6.60;5.07;;;;;;;22.07;100.00;98752.78;4974994;28;20183;-90
2022/09/03 07:52:16;;;;;;;7.53;5.37;;;;;;;23.56;100.00;98947.75;5008198;28;20170;-90
2022/09/03 07:54:41;;;;;;;7.50;5.07;;;;;;;23.45;100.00;98941.91;5008101;28;20172;-90
2022/09/03 07:57:06;;;;;;;8.77;5.70;;;;;;;24.50;100.00;99034.97;4977608;28;20175;-89
2022/09/03 07:59:32;;;;;;;8.68;5.10;;;;;;;24.47;100.00;98990.19;4997651;28;20177;-89
2022/09/03 08:01:58;;;;;;;8.55;6.07;;;;;;;24.38;100.00;98886.84;5011467;28;20194;-90
2022/09/03 08:04:23;;;;;;;8.07;5.70;;;;;;;24.81;100.00;99001.63;4996475;28;20939;-89
2022/09/03 08:06:49;;;;;;;8.27;6.10;;;;;;;24.04;100.00;98833.13;4977186;28;20649;-90
2022/09/03 08:09:14;;;;;;;9.90;5.72;;;;;;;23.81;100.00;98814.63;4995895;28;20264;-91
2022/09/03 08:11:42;;;;;;;7.20;5.82;;;;;;;25.47;100.00;99138.50;4976132;28;20171;-89
2022/09/03 08:14:10;;;;;;;8.88;5.50;;;;;;;25.72;100.00;99181.19;4975817;28;20260;-89
2022/09/03 08:16:38;;;;;;;8.77;5.00;;;;;;;25.11;100.00;99161.63;4992865;28;20166;-89
2022/09/03 08:19:04;;;;;;;7.32;5.95;;;;;;;25.54;100.00;99153.06;4979017;28;20172;-89
2022/09/03 08:21:30;;;;;;;8.50;6.28;;;;;;;24.78;100.00;98946.44;5002447;28;20204;-87
2022/09/03 08:24:03;;;;;;;8.15;5.80;;;;;;;24.06;100.00;98765.88;4997495;28;20173;-88
2022/09/03 08:26:33;;;;;;;9.63;6.70;;;;;;;25.86;100.00;99161.00;5012841;28;20255;-85
2022/09/03 08:28:59;;;;;;;9.43;5.97;;;;;;;25.66;100.00;99160.56;4999040;28;20550;-84
2022/09/03 08:31:26;;;;;;;11.48;7.03;;;;;;;26.26;100.00;99154.03;5010909;28;20182;-85
2022/09/03 08:33:53;;;;;;;10.73;6.63;;;;;;;26.02;100.00;99154.59;4995748;28;20226;-85
2022/09/03 08:36:26;;;;;;;9.45;6.75;;;;;;;25.97;100.00;99153.84;4997396;28;20173;-86
2022/09/03 08:38:55;;;;;;;10.63;7.05;;;;;;;24.80;100.00;98952.47;4995714;28;20161;-85
2022/09/03 08:41:47;;;;;;;11.05;6.90;;;;;;;22.73;100.00;98667.56;4999304;28;20200;-86
2022/09/03 08:44:27;;;;;;;10.30;7.10;;;;;;;25.82;100.00;99151.59;4999257;28;20592;-86
2022/09/03 08:46:59;;;;;;;10.00;7.07;;;;;;;26.36;100.00;99145.16;5007094;28;20180;-87
2022/09/03 08:49:33;;;;;;;10.15;7.30;;;;;;;26.34;100.00;99146.09;4995549;28;20280;-87
2022/09/03 08:52:05;;;;;;;9.80;7.40;;;;;;;25.68;74.68;98969.50;5002162;28;20680;-88
2022/09/03 08:54:31;;;;;;;9.75;7.50;;;;;;;26.37;73.28;99027.44;4999112;28;20194;-86
2022/09/03 08:57:02;;;;;;;9.38;6.28;;;;;;;25.65;74.29;98972.16;4995149;28;20187;-86
2022/09/03 08:59:36;;;;;;;9.30;7.30;;;;;;;25.59;75.72;99018.97;5012573;28;20177;-88
2022/09/03 09:02:35;;;;;;;9.68;7.10;;;;;;;27.25;72.08;99136.78;5012315;28;20231;-90
2022/09/03 09:05:10;;;;;;;10.13;7.15;;;;;;;26.50;74.12;99115.41;4998513;28;20233;-88
2022/09/03 09:08:07;;;;;;;11.15;7.80;;;;;;;26.88;73.58;99133.50;4992541;28;20226;-88
2022/09/03 09:10:40;;;;;;;9.35;6.47;;;;;;;26.70;74.60;99137.38;5017954;28;20184;-86
2022/09/03 09:13:15;;;;;;;9.80;7.80;;;;;;;27.05;73.14;99141.72;4993259;28;20192;-87
2022/09/03 09:16:10;;;;;;;10.70;6.90;;;;;;;24.91;74.09;98836.53;4994882;28;20188;-86
2022/09/03 09:19:10;;;;;;;9.00;6.78;;;;;;;27.17;72.22;99141.34;4990391;28;20272;-86
2022/09/03 09:21:44;;;;;;;11.70;7.78;;;;;;;27.58;71.59;99157.59;4951533;29;20712;-86
2022/09/03 09:24:20;;;;;;;10.10;7.35;;;;;;;27.54;71.00;99146.41;4925007;28;20264;-87
2022/09/03 09:26:47;;;;;;;8.90;7.15;;;;;;;27.03;70.30;99093.28;4950603;28;20209;-88
2022/09/03 09:29:14;;;;;;;12.70;8.02;;;;;;;27.06;70.96;99080.19;4951592;28;20197;-88
2022/09/03 09:31:43;;;;;;;10.20;7.28;;;;;;;26.58;70.10;98949.88;4951743;29;20552;-87
2022/09/03 09:34:09;;;;;;;10.25;7.13;;;;;;;28.39;67.97;99143.81;4951129;29;20323;-87
2022/09/03 09:37:03;;;;;;;9.38;6.72;;;;;;;28.44;67.02;99140.16;4935373;29;20195;-86
2022/09/03 09:39:29;;;;;;;9.75;7.15;;;;;;;27.81;68.24;99130.00;4843954;29;20683;-86
2022/09/03 09:42:08;;;;;;;9.10;6.85;;;;;;;25.88;68.00;98775.31;4829811;29;20262;-87
2022/09/03 09:44:34;;;;;;;8.85;6.45;;;;;;;27.99;64.85;98990.66;4843426;29;20207;-87
2022/09/03 09:47:05;;;;;;;8.02;6.40;;;;;;;28.06;64.00;98972.19;4855708;29;20199;-87
2022/09/03 09:49:37;;;;;;;7.95;6.00;;;;;;;28.64;64.52;99148.22;4847663;29;20230;-88
2022/09/03 09:52:11;;;;;;;7.28;6.43;;;;;;;28.32;65.82;99104.09;4844555;29;20212;-86
2022/09/03 09:54:38;;;;;;;8.02;6.22;;;;;;;28.73;65.04;99091.50;4844262;29;20456;-86
2022/09/03 09:57:07;;;;;;;10.65;6.50;;;;;;;28.93;63.80;99138.53;4845106;29;20239;-87
2022/09/03 09:59:34;;;;;;;7.90;6.40;;;;;;;28.41;63.74;99096.00;4879815;29;20202;-87
2022/09/03 10:02:25;;;;;;;8.82;6.85;;;;;;;28.87;63.95;99139.59;4878894;29;20225;-89
2022/09/03 10:04:51;;;;;;;8.88;6.28;;;;;;;28.57;64.76;99083.28;4878625;29;20827;-87
2022/09/03 10:07:31;;;;;;;8.27;6.65;;;;;;;29.42;62.39;99141.13;4881436;29;20348;-87
2022/09/03 10:10:16;;;;;;;10.43;7.22;;;;;;;28.48;63.83;99014.16;4867473;29;20198;-89
2022/09/03 10:12:48;;;;;;;7.45;6.65;;;;;;;28.77;64.16;99142.59;4878019;29;20186;-89
2022/09/03 10:15:27;;;;;;;9.90;6.88;;;;;;;29.42;62.76;99135.91;4903445;28;20194;-86
2022/09/03 10:18:24;;;;;;;9.82;7.50;;;;;;;29.62;63.20;99154.31;4987552;28;20196;-86
2022/09/03 10:20:54;;;;;;;8.20;6.40;;;;;;;27.84;63.38;98868.84;4988474;28;20194;-87
2022/09/03 10:23:27;;;;;;;11.43;7.15;;;;;;;29.24;62.25;99081.84;4941001;28;20268;-88
2022/09/03 10:26:29;;;;;;;9.52;7.32;;;;;;;29.80;62.46;99113.66;5007215;28;20184;-85
2022/09/03 10:28:59;;;;;;;9.23;7.22;;;;;;;29.53;62.63;99072.94;4926450;29;20300;-85
2022/09/03 10:32:02;;;;;;;10.27;7.00;;;;;;;28.68;64.41;99112.47;4915334;29;20164;-85
2022/09/03 10:34:40;;;;;;;9.32;7.10;;;;;;;29.25;63.21;99112.22;4895061;29;20329;-86
2022/09/03 10:37:32;;;;;;;9.65;7.38;;;;;;;29.44;63.61;99118.47;4895070;29;20228;-86
2022/09/03 10:40:30;;;;;;;9.93;7.07;;;;;;;29.91;61.32;99124.53;4895963;29;20722;-86
2022/09/03 10:42:55;;;;;;;9.05;7.25;;;;;;;28.96;63.13;99120.19;4895809;29;20282;-85
2022/09/03 10:45:33;;;;;;;9.63;7.45;;;;;;;28.18;62.71;98892.84;4896425;29;20642;-85
2022/09/03 10:47:59;;;;;;;8.00;7.05;;;;;;;29.94;61.02;99120.94;4896259;29;20174;-85
2022/09/03 10:50:40;;;;;;;9.70;7.05;;;;;;;28.97;60.47;98988.97;4896098;29;20291;-86
2022/09/03 10:53:30;;;;;;;9.32;6.63;;;;;;;28.89;61.94;99121.31;4878796;29;20197;-85
2022/09/03 10:56:16;;;;;;;9.93;7.43;;;;;;;28.74;62.66;99121.84;4895948;29;20182;-86
2022/09/03 10:58:56;;;;;;;10.65;7.70;;;;;;;29.09;61.15;99122.31;4895613;29;20190;-86
2022/09/03 11:01:26;;;;;;;7.45;6.55;;;;;;;28.14;61.94;98951.09;4895403;29;20688;-85
2022/09/03 11:04:15;;;;;;;9.75;7.57;;;;;;;29.06;62.18;99116.38;4895731;29;20210;-86
2022/09/03 11:06:54;;;;;;;8.70;7.57;;;;;;;29.41;61.14;99118.59;4931124;29;20203;-87
2022/09/03 11:09:25;;;;;;;9.40;7.47;;;;;;;29.54;61.63;99119.81;4945359;28;20226;-87
2022/09/03 11:11:57;;;;;;;11.65;6.85;;;;;;;28.97;62.39;99017.63;4976487;28;20159;-86
2022/09/03 11:14:41;;;;;;;11.23;7.53;;;;;;;28.97;58.63;98945.50;4977918;28;20277;-85
2022/09/03 11:17:41;;;;;;;8.48;7.15;;;;;;;30.25;58.78;99127.50;4993286;28;20165;-86
2022/09/03 11:20:20;;;;;;;9.68;7.60;;;;;;;29.31;59.49;99033.72;4898458;29;20216;-87
2022/09/03 11:22:50;;;;;;;8.57;6.90;;;;;;;28.37;59.85;98921.66;4914215;29;20215;-86
2022/09/03 11:25:22;;;;;;;8.15;6.90;;;;;;;29.10;61.36;99117.94;4914069;29;20678;-86
2022/09/03 11:28:02;;;;;;;9.27;6.88;;;;;;;28.15;62.09;98984.06;4914397;29;20196;-86
2022/09/03 11:30:31;;;;;;;7.50;6.32;;;;;;;27.26;62.10;98886.34;4914037;29;20198;-86
2022/09/03 11:33:01;;;;;;;8.77;6.35;;;;;;;28.85;62.64;99127.53;4913949;29;20316;-86
2022/09/03 11:35:36;;;;;;;9.98;5.70;;;;;;;29.35;59.93;99100.53;4914059;29;20874;-86
2022/09/03 11:38:23;;;;;;;7.10;5.55;;;;;;;28.20;60.45;98997.75;4913931;29;20225;-86
2022/09/03 11:40:57;;;;;;;6.80;5.40;;;;;;;29.07;58.88;99110.22;4926502;29;20218;-87
2022/09/03 11:43:23;;;;;;;6.47;5.00;;;;;;;29.25;59.21;99117.44;4932703;29;20194;-87